Time;durP1;ratioP1;P1;durP2;ratioP2;P2;SDS_P1;SDS_P2;PMS_P1;PMS_P2;Temp;Humidity;BMP_temperature;BMP_pressure;BME280_temperature;BME280_humidity;BME280_pressure;Samples;Min_cycle;Max_cycle;Signal;HPM_P1;HPM_P2
2024/01/05 06:00:49;;;;;;;1.87;1.77;;;;;;;;;;1743197;28;20449;-76
2024/01/05 06:01:40;;;;;;;4.40;2.10;;;;;;;;;;1741351;28;20446;-76
2024/01/05 06:02:32;;;;;;;3.13;1.98;;;;;;;;;;1745281;28;20198;-76
2024/01/05 06:03:23;;;;;;;3.58;2.33;;;;;;;;;;1748042;28;20207;-76
2024/01/05 06:04:15;;;;;;;2.50;1.80;;;;;;;;;;1748041;28;20199;-76
2024/01/05 06:05:06;;;;;;;4.30;2.45;;;;;;;;;;1748278;28;20216;-76
2024/01/05 06:05:58;;;;;;;2.72;2.00;;;;;;;;;;1747426;28;20198;-76
2024/01/05 06:06:50;;;;;;;4.47;2.30;;;;;;;;;;1741273;28;20191;-76
2024/01/05 06:07:41;;;;;;;4.57;2.17;;;;;;;;;;1741322;28;20203;-76
2024/01/05 06:08:33;;;;;;;2.90;1.88;;;;;;;;;;1747340;28;20252;-76
2024/01/05 06:09:25;;;;;;;2.42;1.88;;;;;;;;;;1747768;28;20209;-76
2024/01/05 06:10:16;;;;;;;3.42;1.70;;;;;;;;;;1743430;28;20252;-76
2024/01/05 06:11:08;;;;;;;3.45;1.98;;;;;;;;;;1741062;28;20205;-76
2024/01/05 06:11:59;;;;;;;2.15;1.75;;;;;;;;;;1744361;28;20233;-76
2024/01/05 06:12:50;;;;;;;2.83;1.65;;;;;;;;;;1748096;28;20225;-76
2024/01/05 06:13:42;;;;;;;4.15;1.67;;;;;;;;;;1746490;28;20203;-76
2024/01/05 06:14:33;;;;;;;2.10;1.40;;;;;;;;;;1741178;28;20207;-76
2024/01/05 06:15:25;;;;;;;1.90;1.40;;;;;;;;;;1741080;28;20252;-76
2024/01/05 06:16:18;;;;;;;1.75;1.52;;;;;;;;;;1743875;28;20194;-76
2024/01/05 06:17:09;;;;;;;4.90;1.00;;;;;;;;;;1748152;28;20217;-76
2024/01/05 06:18:01;;;;;;;2.55;1.55;;;;;;;;;;1742256;28;20709;-76
2024/01/05 06:18:52;;;;;;;2.45;1.15;;;;;;;;;;1740857;28;20581;-76
2024/01/05 06:19:43;;;;;;;2.20;1.23;;;;;;;;;;1745372;28;20260;-76
2024/01/05 06:20:35;;;;;;;4.60;1.30;;;;;;;;;;1747424;28;20686;-76
2024/01/05 06:21:26;;;;;;;2.75;1.30;;;;;;;;;;1745292;28;20229;-76
2024/01/05 06:22:19;;;;;;;2.38;1.30;;;;;;;;;;1741118;28;20253;-76
2024/01/05 06:23:10;;;;;;;2.63;1.52;;;;;;;;;;1742262;28;20199;-76
2024/01/05 06:24:02;;;;;;;3.80;2.08;;;;;;;;;;1748076;28;20224;-76
2024/01/05 06:24:53;;;;;;;3.22;1.60;;;;;;;;;;1748069;28;20206;-76
2024/01/05 06:25:44;;;;;;;2.60;1.63;;;;;;;;;;1748047;28;20583;-76
2024/01/05 06:26:37;;;;;;;3.88;1.60;;;;;;;;;;1748144;28;20202;-76
2024/01/05 06:27:28;;;;;;;3.75;1.52;;;;;;;;;;1742842;28;20717;-76
2024/01/05 06:28:19;;;;;;;2.70;1.60;;;;;;;;;;1741057;28;20202;-76
2024/01/05 06:29:11;;;;;;;2.20;1.40;;;;;;;;;;1744268;28;20199;-76
2024/01/05 06:30:02;;;;;;;4.07;1.65;;;;;;;;;;1746132;28;20205;-76
2024/01/05 06:30:54;;;;;;;2.90;1.08;;;;;;;;;;1745960;28;20201;-76
2024/01/05 06:31:47;;;;;;;2.33;1.50;;;;;;;;;;1747284;28;20223;-76
2024/01/05 06:32:39;;;;;;;1.38;0.95;;;;;;;;;;1747978;28;20202;-77
2024/01/05 06:33:30;;;;;;;7.07;1.40;;;;;;;;;;1747771;28;20226;-76
2024/01/05 06:34:22;;;;;;;1.40;0.98;;;;;;;;;;1747900;28;20674;-76
2024/01/05 06:35:13;;;;;;;3.38;1.63;;;;;;;;;;1741601;28;20707;-76
2024/01/05 06:36:06;;;;;;;3.40;1.55;;;;;;;;;;1741960;28;20626;-76
2024/01/05 06:36:59;;;;;;;2.45;1.30;;;;;;;;;;1745788;28;20206;-76
2024/01/05 06:37:50;;;;;;;3.97;1.52;;;;;;;;;;1747904;28;20289;-76
2024/01/05 06:38:41;;;;;;;2.92;1.77;;;;;;;;;;1747576;28;20209;-76
2024/01/05 06:39:33;;;;;;;2.88;1.45;;;;;;;;;;1747744;28;20234;-76
2024/01/05 06:40:24;;;;;;;5.00;1.77;;;;;;;;;;1745911;28;20202;-76
2024/01/05 06:41:15;;;;;;;2.55;1.40;;;;;;;;;;1746098;28;20578;-76
2024/01/05 06:42:07;;;;;;;4.10;2.22;;;;;;;;;;1747585;28;20242;-76
2024/01/05 06:42:58;;;;;;;3.33;1.50;;;;;;;;;;1740857;28;20203;-76
2024/01/05 06:43:49;;;;;;;3.72;1.25;;;;;;;;;;1740948;28;20643;-76
2024/01/05 06:44:41;;;;;;;2.15;1.10;;;;;;;;;;1746576;28;20259;-76
2024/01/05 06:45:33;;;;;;;4.32;1.20;;;;;;;;;;1747878;28;20211;-76
2024/01/05 06:46:25;;;;;;;3.92;1.60;;;;;;;;;;1744081;28;20195;-76
2024/01/05 06:47:17;;;;;;;3.00;1.52;;;;;;;;;;1747156;28;20222;-76
2024/01/05 06:48:08;;;;;;;1.50;1.10;;;;;;;;;;1744872;28;20215;-77
2024/01/05 06:49:01;;;;;;;2.92;1.40;;;;;;;;;;1740553;28;20964;-77
2024/01/05 06:49:52;;;;;;;2.03;1.45;;;;;;;;;;1742315;28;20196;-76
2024/01/05 06:50:43;;;;;;;1.98;1.23;;;;;;;;;;1746947;28;20201;-76
2024/01/05 06:51:38;;;;;;;2.95;1.40;;;;;;;;;;1746613;28;20289;-76
2024/01/05 06:52:29;;;;;;;4.35;1.40;;;;;;;;;;1741059;28;20206;-76
2024/01/05 06:53:20;;;;;;;5.57;1.77;;;;;;;;;;1740817;28;20226;-77
2024/01/05 06:54:13;;;;;;;2.55;1.05;;;;;;;;;;1746537;28;20686;-76
2024/01/05 06:55:04;;;;;;;2.03;1.35;;;;;;;;;;1747833;28;20581;-77
2024/01/05 06:55:55;;;;;;;2.35;1.20;;;;;;;;;;1743605;28;20207;-76
2024/01/05 06:56:48;;;;;;;3.28;1.27;;;;;;;;;;1740937;28;20695;-76
2024/01/05 06:57:39;;;;;;;3.47;1.42;;;;;;;;;;1743522;28;20207;-76
2024/01/05 06:58:33;;;;;;;3.03;1.30;;;;;;;;;;1747841;28;20327;-76
2024/01/05 06:59:24;;;;;;;5.43;1.75;;;;;;;;;;1746003;28;20344;-76
2024/01/05 07:00:16;;;;;;;5.78;1.88;;;;;;;;;;1740956;28;20218;-76
2024/01/05 07:01:08;;;;;;;3.17;1.38;;;;;;;;;;1744558;28;20190;-76
2024/01/05 07:02:00;;;;;;;3.92;1.73;;;;;;;;;;1740739;28;20227;-76
2024/01/05 07:02:52;;;;;;;2.67;1.33;;;;;;;;;;1740908;28;20547;-76
2024/01/05 07:03:44;;;;;;;5.05;2.40;;;;;;;;;;1746434;28;20206;-76
2024/01/05 07:04:35;;;;;;;4.88;1.65;;;;;;;;;;1747796;28;20667;-76
2024/01/05 07:05:27;;;;;;;2.40;1.10;;;;;;;;;;1744391;28;20244;-77
2024/01/05 07:06:18;;;;;;;3.42;1.52;;;;;;;;;;1746365;28;20205;-76
2024/01/05 07:07:10;;;;;;;2.90;1.63;;;;;;;;;;1745073;28;20198;-76
2024/01/05 07:08:01;;;;;;;3.53;1.70;;;;;;;;;;1740812;28;20207;-77
2024/01/05 07:08:53;;;;;;;2.58;1.67;;;;;;;;;;1741546;28;20314;-76
2024/01/05 07:09:44;;;;;;;3.15;1.75;;;;;;;;;;1747742;28;20218;-76
2024/01/05 07:10:36;;;;;;;2.03;1.40;;;;;;;;;;1747915;28;20198;-76
2024/01/05 07:11:28;;;;;;;3.53;1.52;;;;;;;;;;1747410;28;20625;-77
2024/01/05 07:12:19;;;;;;;2.55;1.35;;;;;;;;;;1747790;28;20226;-77
2024/01/05 07:13:11;;;;;;;2.38;1.58;;;;;;;;;;1742606;28;20234;-77
2024/01/05 07:14:02;;;;;;;1.80;1.30;;;;;;;;;;1740761;28;20203;-76
2024/01/05 07:14:53;;;;;;;2.47;1.20;;;;;;;;;;1744396;28;20194;-77
2024/01/05 07:15:45;;;;;;;2.92;1.55;;;;;;;;;;1747833;28;20202;-76
2024/01/05 07:16:36;;;;;;;4.28;1.33;;;;;;;;;;1748816;28;20209;-76
2024/01/05 07:17:28;;;;;;;2.00;1.38;;;;;;;;;;1748852;28;20232;-77
2024/01/05 07:18:21;;;;;;;2.85;1.27;;;;;;;;;;1748709;28;20198;-76
2024/01/05 07:19:12;;;;;;;2.78;1.30;;;;;;;;;;1741776;28;20225;-76
2024/01/05 07:20:04;;;;;;;5.45;1.50;;;;;;;;;;1742105;28;20564;-77
2024/01/05 07:20:55;;;;;;;3.83;1.50;;;;;;;;;;1746253;28;20675;-76
2024/01/05 07:21:47;;;;;;;3.78;1.50;;;;;;;;;;1743336;28;20216;-76
2024/01/05 07:22:39;;;;;;;3.17;1.42;;;;;;;;;;1748795;28;20671;-76
2024/01/05 07:23:30;;;;;;;2.03;1.30;;;;;;;;;;1748967;28;20217;-77
2024/01/05 07:24:22;;;;;;;2.65;1.40;;;;;;;;;;1749119;28;20206;-77
2024/01/05 07:25:13;;;;;;;4.35;1.98;;;;;;;;;;1749169;28;20217;-77
2024/01/05 07:26:05;;;;;;;3.05;1.45;;;;;;;;;;1747458;28;20207;-76
2024/01/05 07:26:57;;;;;;;2.72;1.27;;;;;;;;;;1742101;28;20195;-76
2024/01/05 07:27:48;;;;;;;2.33;1.33;;;;;;;;;;1742127;28;20203;-76
2024/01/05 07:28:39;;;;;;;3.03;1.70;;;;;;;;;;1742003;28;20245;-76
2024/01/05 07:29:31;;;;;;;3.10;1.52;;;;;;;;;;1741828;28;20285;-77
2024/01/05 07:30:22;;;;;;;3.58;1.38;;;;;;;;;;1747481;28;20215;-77
2024/01/05 07:31:13;;;;;;;2.25;1.40;;;;;;;;;;1744788;28;20192;-76
2024/01/05 07:32:05;;;;;;;3.63;1.98;;;;;;;;;;1745773;28;20222;-76
2024/01/05 07:32:57;;;;;;;3.88;1.50;;;;;;;;;;1748950;28;20206;-76
2024/01/05 07:33:49;;;;;;;3.50;1.42;;;;;;;;;;1748773;28;20694;-76
2024/01/05 07:34:41;;;;;;;2.30;1.55;;;;;;;;;;1748994;28;20199;-77
2024/01/05 07:35:33;;;;;;;2.80;1.00;;;;;;;;;;1748033;28;20198;-76
2024/01/05 07:36:25;;;;;;;2.92;1.40;;;;;;;;;;1743025;28;20194;-76
2024/01/05 07:37:17;;;;;;;3.05;1.38;;;;;;;;;;1747637;28;20198;-76
2024/01/05 07:38:09;;;;;;;3.63;1.40;;;;;;;;;;1742420;28;20207;-77
2024/01/05 07:39:00;;;;;;;3.17;1.40;;;;;;;;;;1741922;28;20211;-77
2024/01/05 07:39:51;;;;;;;3.17;1.23;;;;;;;;;;1747140;28;20326;-76
2024/01/05 07:40:43;;;;;;;2.83;1.50;;;;;;;;;;1748871;28;20202;-76
2024/01/05 07:41:34;;;;;;;3.60;1.65;;;;;;;;;;1744709;28;20203;-76
2024/01/05 07:42:27;;;;;;;3.75;1.60;;;;;;;;;;1741992;28;20238;-76
2024/01/05 07:43:19;;;;;;;2.05;1.40;;;;;;;;;;1744116;28;20206;-76
2024/01/05 07:44:10;;;;;;;2.00;1.27;;;;;;;;;;1749077;28;20693;-76
2024/01/05 07:45:02;;;;;;;4.22;1.52;;;;;;;;;;1748797;28;20209;-76
2024/01/05 07:45:54;;;;;;;4.53;1.63;;;;;;;;;;1748842;28;20202;-76
2024/01/05 07:46:46;;;;;;;2.75;1.70;;;;;;;;;;1748867;28;20202;-76
2024/01/05 07:47:37;;;;;;;3.75;1.50;;;;;;;;;;1742529;28;20667;-76
2024/01/05 07:48:29;;;;;;;4.22;1.88;;;;;;;;;;1741951;28;20655;-77
2024/01/05 07:49:21;;;;;;;1.42;1.30;;;;;;;;;;1746263;28;20670;-77
2024/01/05 07:50:12;;;;;;;3.53;1.48;;;;;;;;;;1748867;28;20207;-76
2024/01/05 07:51:05;;;;;;;4.70;1.70;;;;;;;;;;1747578;28;20651;-76
2024/01/05 07:51:56;;;;;;;4.03;1.67;;;;;;;;;;1748794;28;20226;-76
2024/01/05 07:52:48;;;;;;;1.80;1.38;;;;;;;;;;1747963;28;20194;-76
2024/01/05 07:53:39;;;;;;;4.65;1.50;;;;;;;;;;1743764;28;20219;-77
2024/01/05 07:54:30;;;;;;;3.38;1.60;;;;;;;;;;1742979;28;20205;-77
2024/01/05 07:55:23;;;;;;;3.70;1.30;;;;;;;;;;1749148;28;20674;-77
2024/01/05 07:56:14;;;;;;;2.75;1.40;;;;;;;;;;1749168;28;20243;-77
2024/01/05 07:57:06;;;;;;;7.07;1.67;;;;;;;;;;1749303;28;20668;-77
2024/01/05 07:57:57;;;;;;;2.50;1.50;;;;;;;;;;1749067;28;20670;-77
2024/01/05 07:58:49;;;;;;;2.33;1.30;;;;;;;;;;1744398;28;20195;-77
2024/01/05 07:59:40;;;;;;;2.63;1.40;;;;;;;;;;1742140;28;20202;-77
2024/01/05 08:00:31;;;;;;;2.03;1.50;;;;;;;;;;1744754;28;20210;-76
2024/01/05 08:01:23;;;;;;;3.75;1.80;;;;;;;;;;1744049;28;20820;-77
2024/01/05 08:02:14;;;;;;;2.63;1.30;;;;;;;;;;1743320;28;20642;-77
2024/01/05 08:03:06;;;;;;;3.38;1.35;;;;;;;;;;1749084;28;20194;-77
2024/01/05 08:03:58;;;;;;;2.88;1.60;;;;;;;;;;1748846;28;20290;-77
2024/01/05 08:04:50;;;;;;;4.43;1.70;;;;;;;;;;1749096;28;20210;-77
2024/01/05 08:05:41;;;;;;;4.05;1.80;;;;;;;;;;1748945;28;20202;-77
2024/01/05 08:06:33;;;;;;;4.22;1.80;;;;;;;;;;1743655;28;20199;-77
2024/01/05 08:07:25;;;;;;;4.30;1.70;;;;;;;;;;1742258;28;20207;-77
2024/01/05 08:08:16;;;;;;;3.25;1.40;;;;;;;;;;1746090;28;20611;-77
2024/01/05 08:09:08;;;;;;;4.43;1.60;;;;;;;;;;1748701;28;20346;-77
2024/01/05 08:10:00;;;;;;;4.30;1.60;;;;;;;;;;1745504;28;20727;-76
2024/01/05 08:10:51;;;;;;;2.03;1.40;;;;;;;;;;1748957;28;20202;-77
2024/01/05 08:11:42;;;;;;;2.67;1.42;;;;;;;;;;1743103;28;20191;-77
2024/01/05 08:12:34;;;;;;;2.25;1.10;;;;;;;;;;1749477;28;20659;-77
2024/01/05 08:13:26;;;;;;;3.38;1.30;;;;;;;;;;1749521;28;20242;-77
2024/01/05 08:14:17;;;;;;;3.28;1.40;;;;;;;;;;1749300;28;20293;-77
2024/01/05 08:15:09;;;;;;;3.80;1.48;;;;;;;;;;1749106;28;20198;-77
2024/01/05 08:16:00;;;;;;;4.05;1.65;;;;;;;;;;1744370;28;20220;-77
2024/01/05 08:16:52;;;;;;;2.80;1.70;;;;;;;;;;1741838;28;20199;-77
2024/01/05 08:17:43;;;;;;;2.83;1.20;;;;;;;;;;1745635;28;20210;-77
2024/01/05 08:18:34;;;;;;;5.65;1.70;;;;;;;;;;1749054;28;20194;-77
2024/01/05 08:19:26;;;;;;;4.90;1.55;;;;;;;;;;1746953;28;20194;-76
2024/01/05 08:20:19;;;;;;;2.72;1.45;;;;;;;;;;1742074;28;20199;-76
2024/01/05 08:21:11;;;;;;;3.33;1.30;;;;;;;;;;1744993;28;20247;-76
2024/01/05 08:22:02;;;;;;;2.38;1.40;;;;;;;;;;1745227;28;20699;-77
2024/01/05 08:22:53;;;;;;;4.93;1.70;;;;;;;;;;1745900;28;20199;-77
2024/01/05 08:23:46;;;;;;;2.58;1.60;;;;;;;;;;1746035;28;20566;-77
2024/01/05 08:24:37;;;;;;;5.05;1.95;;;;;;;;;;1744978;28;20663;-77
2024/01/05 08:25:28;;;;;;;4.18;2.30;;;;;;;;;;1746127;28;20256;-77
2024/01/05 08:26:21;;;;;;;3.97;1.50;;;;;;;;;;1742910;28;20186;-76
2024/01/05 08:27:12;;;;;;;4.10;1.90;;;;;;;;;;1743393;28;20218;-77
2024/01/05 08:28:03;;;;;;;2.72;1.50;;;;;;;;;;1746620;28;20249;-77
2024/01/05 08:28:55;;;;;;;3.20;1.98;;;;;;;;;;1744710;28;20716;-77
2024/01/05 08:29:47;;;;;;;2.50;1.50;;;;;;;;;;1741470;28;20210;-77
2024/01/05 08:30:39;;;;;;;3.53;1.70;;;;;;;;;;1744976;28;20199;-76
2024/01/05 08:31:31;;;;;;;3.42;1.65;;;;;;;;;;1743113;28;20282;-77
2024/01/05 08:32:22;;;;;;;3.97;1.88;;;;;;;;;;1747774;28;20202;-77
2024/01/05 08:33:14;;;;;;;3.45;2.30;;;;;;;;;;1748711;28;20237;-77
2024/01/05 08:34:06;;;;;;;3.67;2.03;;;;;;;;;;1748656;28;20226;-77
2024/01/05 08:34:58;;;;;;;4.90;1.65;;;;;;;;;;1747501;28;20206;-77
2024/01/05 08:35:50;;;;;;;4.57;2.10;;;;;;;;;;1748762;28;20833;-77
2024/01/05 08:36:42;;;;;;;4.47;1.90;;;;;;;;;;1748485;28;20578;-76
2024/01/05 08:37:33;;;;;;;4.47;1.88;;;;;;;;;;1748741;28;20213;-77
2024/01/05 08:38:25;;;;;;;4.70;1.85;;;;;;;;;;1747244;28;20666;-76
2024/01/05 08:39:17;;;;;;;3.17;1.40;;;;;;;;;;1741378;28;20199;-77
2024/01/05 08:40:08;;;;;;;4.15;1.98;;;;;;;;;;1745849;28;20651;-76
2024/01/05 08:41:00;;;;;;;2.75;1.20;;;;;;;;;;1741983;28;20199;-77
2024/01/05 08:41:52;;;;;;;2.55;1.55;;;;;;;;;;1741846;28;20223;-77
2024/01/05 08:42:43;;;;;;;3.50;1.55;;;;;;;;;;1746772;28;20293;-77
2024/01/05 08:43:35;;;;;;;4.20;2.00;;;;;;;;;;1748541;28;20803;-77
2024/01/05 08:44:26;;;;;;;1.83;1.17;;;;;;;;;;1748628;28;20211;-77
2024/01/05 08:45:19;;;;;;;3.40;1.60;;;;;;;;;;1744750;28;20280;-76
2024/01/05 08:46:10;;;;;;;3.70;1.90;;;;;;;;;;1745724;28;20226;-76
2024/01/05 08:47:01;;;;;;;2.50;1.75;;;;;;;;;;1741609;28;20211;-77
2024/01/05 08:47:53;;;;;;;3.47;1.48;;;;;;;;;;1742272;28;20234;-77
2024/01/05 08:48:45;;;;;;;5.78;1.98;;;;;;;;;;1748468;28;20581;-77
2024/01/05 08:49:37;;;;;;;2.35;1.30;;;;;;;;;;1748932;28;20195;-77
2024/01/05 08:50:28;;;;;;;3.45;1.25;;;;;;;;;;1748687;28;20210;-77
2024/01/05 08:51:22;;;;;;;3.55;1.52;;;;;;;;;;1748290;28;20269;-77
2024/01/05 08:52:13;;;;;;;3.50;1.98;;;;;;;;;;1747410;28;20226;-77
2024/01/05 08:53:04;;;;;;;3.15;1.67;;;;;;;;;;1749165;28;20277;-77
2024/01/05 08:53:58;;;;;;;3.03;1.40;;;;;;;;;;1749110;28;20205;-77
2024/01/05 08:54:49;;;;;;;5.00;1.63;;;;;;;;;;1748971;28;20203;-77
2024/01/05 08:55:41;;;;;;;2.47;1.38;;;;;;;;;;1747011;28;20222;-77
2024/01/05 08:56:33;;;;;;;2.20;1.40;;;;;;;;;;1742039;28;20215;-77
2024/01/05 08:57:26;;;;;;;2.63;1.50;;;;;;;;;;1742867;28;20221;-77
2024/01/05 08:58:17;;;;;;;3.22;1.67;;;;;;;;;;1748862;28;20238;-77
2024/01/05 08:59:09;;;;;;;3.33;1.55;;;;;;;;;;1748237;28;20198;-77
2024/01/05 09:00:00;;;;;;;2.15;1.80;;;;;;;;;;1748433;28;20210;-77
2024/01/05 09:00:51;;;;;;;3.40;1.60;;;;;;;;;;1748745;28;20631;-77
2024/01/05 09:01:43;;;;;;;5.45;1.80;;;;;;;;;;1744370;28;20206;-76
2024/01/05 09:02:35;;;;;;;6.28;1.63;;;;;;;;;;1743498;28;20234;-77
2024/01/05 09:03:26;;;;;;;5.47;1.70;;;;;;;;;;1744771;28;20296;-77
2024/01/05 09:04:19;;;;;;;3.80;1.75;;;;;;;;;;1748652;28;20275;-77
2024/01/05 09:05:10;;;;;;;2.45;1.35;;;;;;;;;;1746939;28;20585;-76
2024/01/05 09:06:02;;;;;;;3.00;1.70;;;;;;;;;;1741871;28;20191;-77
2024/01/05 09:06:55;;;;;;;4.30;1.85;;;;;;;;;;1745609;28;20206;-77
2024/01/05 09:07:47;;;;;;;4.32;1.73;;;;;;;;;;1741678;28;20214;-77
2024/01/05 09:08:39;;;;;;;3.15;1.80;;;;;;;;;;1741649;28;20261;-77
2024/01/05 09:09:30;;;;;;;3.50;1.58;;;;;;;;;;1747531;28;20233;-77
2024/01/05 09:10:22;;;;;;;3.10;1.65;;;;;;;;;;1748255;28;20198;-77
2024/01/05 09:11:14;;;;;;;1.85;1.17;;;;;;;;;;1743957;28;20211;-77
2024/01/05 09:12:05;;;;;;;3.42;1.67;;;;;;;;;;1741570;28;20225;-77
2024/01/05 09:12:57;;;;;;;2.13;1.40;;;;;;;;;;1744347;28;20206;-77
2024/01/05 09:13:48;;;;;;;5.38;1.30;;;;;;;;;;1748495;28;20207;-77
2024/01/05 09:14:41;;;;;;;6.38;1.60;;;;;;;;;;1748367;28;20232;-77
2024/01/05 09:15:32;;;;;;;3.55;1.58;;;;;;;;;;1748405;28;20209;-77
2024/01/05 09:16:24;;;;;;;2.65;1.45;;;;;;;;;;1748421;28;20255;-77
2024/01/05 09:17:16;;;;;;;4.00;1.65;;;;;;;;;;1741464;28;20211;-77
2024/01/05 09:18:08;;;;;;;10.25;1.85;;;;;;;;;;1741926;28;20805;-76
2024/01/05 09:19:00;;;;;;;6.25;1.85;;;;;;;;;;1741799;28;20219;-77
2024/01/05 09:19:52;;;;;;;4.30;1.80;;;;;;;;;;1741939;28;20202;-76
2024/01/05 09:20:44;;;;;;;2.80;1.60;;;;;;;;;;1743796;28;20655;-77
2024/01/05 09:21:35;;;;;;;5.60;2.00;;;;;;;;;;1741737;28;20202;-77
2024/01/05 09:22:28;;;;;;;2.40;1.33;;;;;;;;;;1744404;28;20203;-77
2024/01/05 09:23:19;;;;;;;3.40;1.83;;;;;;;;;;1748295;28;20213;-76
2024/01/05 09:24:11;;;;;;;3.72;1.48;;;;;;;;;;1743778;28;20266;-77
2024/01/05 09:25:03;;;;;;;4.07;1.52;;;;;;;;;;1748412;28;20682;-76
2024/01/05 09:25:55;;;;;;;3.95;1.95;;;;;;;;;;1748391;28;20641;-76
2024/01/05 09:26:47;;;;;;;3.20;1.65;;;;;;;;;;1741756;28;20203;-77
2024/01/05 09:27:38;;;;;;;3.80;1.85;;;;;;;;;;1741566;28;20207;-77
2024/01/05 09:28:30;;;;;;;3.33;1.50;;;;;;;;;;1746986;28;20202;-76
2024/01/05 09:29:22;;;;;;;3.17;1.60;;;;;;;;;;1748111;28;20687;-77
2024/01/05 09:30:14;;;;;;;3.80;1.85;;;;;;;;;;1746105;28;20191;-77
2024/01/05 09:31:05;;;;;;;2.45;1.42;;;;;;;;;;1747667;28;20206;-77
2024/01/05 09:31:56;;;;;;;7.93;2.00;;;;;;;;;;1748065;28;20230;-77
2024/01/05 09:32:48;;;;;;;3.25;1.85;;;;;;;;;;1748506;28;20628;-77
2024/01/05 09:33:39;;;;;;;4.28;1.80;;;;;;;;;;1747250;28;20585;-77
2024/01/05 09:34:30;;;;;;;4.07;2.22;;;;;;;;;;1741414;28;20276;-77
2024/01/05 09:35:24;;;;;;;4.80;2.05;;;;;;;;;;1741630;28;20190;-76
2024/01/05 09:36:15;;;;;;;4.65;1.75;;;;;;;;;;1748304;28;20777;-77
2024/01/05 09:37:08;;;;;;;4.28;2.10;;;;;;;;;;1748442;28;20202;-77
2024/01/05 09:38:00;;;;;;;3.58;1.40;;;;;;;;;;1743172;28;20297;-77
2024/01/05 09:38:52;;;;;;;2.92;1.55;;;;;;;;;;1739500;28;20337;-77
2024/01/05 09:39:45;;;;;;;2.85;1.70;;;;;;;;;;1745712;28;20557;-77
2024/01/05 09:40:37;;;;;;;4.30;1.75;;;;;;;;;;1748676;28;20197;-77
2024/01/05 09:41:29;;;;;;;4.50;1.90;;;;;;;;;;1745349;28;20193;-77
2024/01/05 09:42:20;;;;;;;3.45;1.85;;;;;;;;;;1741842;28;20572;-77
2024/01/05 09:43:12;;;;;;;2.75;1.70;;;;;;;;;;1742403;28;20203;-77
2024/01/05 09:44:04;;;;;;;3.45;2.05;;;;;;;;;;1748440;28;20198;-77
2024/01/05 09:44:56;;;;;;;2.78;1.77;;;;;;;;;;1748518;28;20230;-77
2024/01/05 09:45:48;;;;;;;3.58;1.70;;;;;;;;;;1748390;28;20198;-77
2024/01/05 09:46:41;;;;;;;3.90;1.90;;;;;;;;;;1748464;28;20210;-77
2024/01/05 09:47:32;;;;;;;4.35;1.80;;;;;;;;;;1743070;28;20213;-77
2024/01/05 09:48:24;;;;;;;4.53;1.70;;;;;;;;;;1741376;28;20282;-77
2024/01/05 09:49:17;;;;;;;5.65;2.00;;;;;;;;;;1744966;28;20202;-77
2024/01/05 09:50:10;;;;;;;4.20;1.80;;;;;;;;;;1748183;28;20631;-77
2024/01/05 09:51:01;;;;;;;3.05;1.70;;;;;;;;;;1745542;28;20198;-77
2024/01/05 09:51:53;;;;;;;4.00;2.00;;;;;;;;;;1741495;28;20207;-77
2024/01/05 09:52:45;;;;;;;2.28;1.67;;;;;;;;;;1744893;28;20198;-77
2024/01/05 09:53:38;;;;;;;5.18;1.63;;;;;;;;;;1741314;28;20206;-77
2024/01/05 09:54:29;;;;;;;3.53;2.08;;;;;;;;;;1741404;28;20211;-77
2024/01/05 09:55:24;;;;;;;4.65;2.10;;;;;;;;;;1742792;28;20659;-77
2024/01/05 09:56:16;;;;;;;4.72;1.70;;;;;;;;;;1748149;28;20240;-77
2024/01/05 09:57:08;;;;;;;2.97;1.40;;;;;;;;;;1742381;28;20202;-77
2024/01/05 09:58:01;;;;;;;2.92;1.98;;;;;;;;;;1741279;28;20211;-77
2024/01/05 09:58:52;;;;;;;3.13;2.10;;;;;;;;;;1745670;28;20202;-77
2024/01/05 09:59:46;;;;;;;1.95;1.65;;;;;;;;;;1748236;28;20210;-76
2024/01/05 10:00:39;;;;;;;6.15;2.30;;;;;;;;;;1748147;28;20259;-77
2024/01/05 10:01:32;;;;;;;4.07;1.83;;;;;;;;;;1744680;28;20596;-77
2024/01/05 10:02:34;;;;;;;3.75;1.80;;;;;;;;;;1743533;28;20198;-77
2024/01/05 10:03:26;;;;;;;5.18;1.90;;;;;;;;;;1748251;28;20207;-77
2024/01/05 10:04:19;;;;;;;3.50;1.90;;;;;;;;;;1748079;28;20202;-77
2024/01/05 10:05:11;;;;;;;4.13;2.10;;;;;;;;;;1748252;28;20232;-77
2024/01/05 10:06:02;;;;;;;4.88;1.95;;;;;;;;;;1747017;28;20198;-77
2024/01/05 10:07:00;;;;;;;3.65;1.85;;;;;;;;;;1741466;28;20564;-77
2024/01/05 10:07:52;;;;;;;5.00;2.60;;;;;;;;;;1741396;28;20203;-77
2024/01/05 10:08:45;;;;;;;5.45;1.80;;;;;;;;;;1746349;28;20202;-77
2024/01/05 10:09:49;;;;;;;3.05;1.95;;;;;;;;;;1741428;28;20207;-77
2024/01/05 10:10:45;;;;;;;3.65;1.67;;;;;;;;;;1744656;28;20194;-77
2024/01/05 10:11:41;;;;;;;2.30;1.65;;;;;;;;;;1747371;28;20199;-77
2024/01/05 10:12:32;;;;;;;3.05;2.00;;;;;;;;;;1748319;28;20213;-77
2024/01/05 10:13:24;;;;;;;5.25;2.25;;;;;;;;;;1748062;28;20195;-77
2024/01/05 10:14:16;;;;;;;4.38;2.03;;;;;;;;;;1742281;28;20207;-77
2024/01/05 10:15:08;;;;;;;3.08;1.77;;;;;;;;;;1741395;28;20619;-77
2024/01/05 10:16:02;;;;;;;3.78;1.90;;;;;;;;;;1746815;28;20279;-77
2024/01/05 10:17:07;;;;;;;3.20;2.30;;;;;;;;;;1748047;28;20201;-77
2024/01/05 10:18:14;;;;;;;4.35;2.28;;;;;;;;;;1742992;28;20235;-77
2024/01/05 10:19:13;;;;;;;3.55;1.90;;;;;;;;;;1741015;28;20598;-77
2024/01/05 10:20:11;;;;;;;4.10;2.08;;;;;;;;;;1747829;28;20214;-77
2024/01/05 10:21:10;;;;;;;2.95;1.90;;;;;;;;;;1747157;28;20278;-77
2024/01/05 10:22:08;;;;;;;2.58;1.52;;;;;;;;;;1747916;28;20222;-77
2024/01/05 10:23:04;;;;;;;4.43;2.00;;;;;;;;;;1747754;28;20194;-77
2024/01/05 10:23:58;;;;;;;5.05;1.70;;;;;;;;;;1741054;28;20625;-77
2024/01/05 10:24:49;;;;;;;2.97;1.65;;;;;;;;;;1741328;28;20578;-77
2024/01/05 10:25:41;;;;;;;4.10;1.60;;;;;;;;;;1746765;28;20206;-77
2024/01/05 10:26:33;;;;;;;4.25;1.80;;;;;;;;;;1748194;28;20263;-77
2024/01/05 10:27:28;;;;;;;3.13;2.00;;;;;;;;;;1743799;28;20837;-77
2024/01/05 10:28:24;;;;;;;3.47;2.25;;;;;;;;;;1741337;28;20282;-77
2024/01/05 10:29:15;;;;;;;2.72;2.10;;;;;;;;;;1744741;28;20271;-77
2024/01/05 10:30:07;;;;;;;4.15;2.40;;;;;;;;;;1748039;28;20575;-77
2024/01/05 10:31:11;;;;;;;2.28;1.60;;;;;;;;;;1745794;28;20256;-77
2024/01/05 10:32:20;;;;;;;4.43;2.08;;;;;;;;;;1741292;28;20245;-77
2024/01/05 10:33:12;;;;;;;3.72;2.22;;;;;;;;;;1746066;28;20205;-77
2024/01/05 10:34:03;;;;;;;3.50;1.85;;;;;;;;;;1747975;28;20202;-77
2024/01/05 10:34:54;;;;;;;2.90;1.70;;;;;;;;;;1747641;28;20252;-77
2024/01/05 10:35:46;;;;;;;3.47;1.95;;;;;;;;;;1747926;28;20198;-77
2024/01/05 10:36:38;;;;;;;3.85;2.38;;;;;;;;;;1746161;28;20217;-77
2024/01/05 10:37:30;;;;;;;3.40;2.60;;;;;;;;;;1741093;28;20218;-77
2024/01/05 10:38:23;;;;;;;4.18;2.53;;;;;;;;;;1741703;28;20206;-77
2024/01/05 10:39:20;;;;;;;5.28;2.30;;;;;;;;;;1747696;28;20595;-77
2024/01/05 10:40:18;;;;;;;5.28;2.00;;;;;;;;;;1748088;28;20207;-77
2024/01/05 10:41:09;;;;;;;3.50;2.10;;;;;;;;;;1742420;28;20195;-77
2024/01/05 10:42:14;;;;;;;5.07;2.60;;;;;;;;;;1747109;28;20301;-77
2024/01/05 10:43:10;;;;;;;2.78;2.08;;;;;;;;;;1741044;28;20563;-77
2024/01/05 10:44:03;;;;;;;4.85;2.45;;;;;;;;;;1741080;28;20211;-77
2024/01/05 10:44:55;;;;;;;6.55;2.55;;;;;;;;;;1741159;28;20203;-77
2024/01/05 10:45:47;;;;;;;3.90;2.20;;;;;;;;;;1743343;28;20207;-77
2024/01/05 10:46:43;;;;;;;4.43;2.10;;;;;;;;;;1742024;28;20247;-77
2024/01/05 10:47:34;;;;;;;4.20;2.00;;;;;;;;;;1741054;28;20234;-77
2024/01/05 10:48:26;;;;;;;4.10;1.80;;;;;;;;;;1745846;28;20286;-77
2024/01/05 10:49:18;;;;;;;5.95;2.15;;;;;;;;;;1747709;28;20209;-77
2024/01/05 10:50:10;;;;;;;3.30;1.90;;;;;;;;;;1748087;28;20206;-77
2024/01/05 10:51:01;;;;;;;8.50;6.10;;;;;;;;;;1748084;28;20191;-77
2024/01/05 10:51:53;;;;;;;5.63;3.08;;;;;;;;;;1746667;28;20293;-77
2024/01/05 10:52:44;;;;;;;5.80;2.78;;;;;;;;;;1742431;28;20272;-77
2024/01/05 10:53:37;;;;;;;3.75;2.20;;;;;;;;;;1742708;28;20203;-77
2024/01/05 10:54:30;;;;;;;2.33;1.88;;;;;;;;;;1748515;28;20206;-77
2024/01/05 10:55:21;;;;;;;7.40;2.20;;;;;;;;;;1742637;28;20203;-77
2024/01/05 10:56:14;;;;;;;4.78;1.95;;;;;;;;;;1748365;28;20655;-77
2024/01/05 10:57:06;;;;;;;2.95;1.65;;;;;;;;;;1749196;28;20194;-77
2024/01/05 10:57:57;;;;;;;3.70;1.90;;;;;;;;;;1744418;28;20294;-77
2024/01/05 10:58:50;;;;;;;6.55;2.05;;;;;;;;;;1741961;28;20552;-77
2024/01/05 10:59:43;;;;;;;3.45;1.85;;;;;;;;;;1745732;28;20210;-77
2024/01/05 11:00:35;;;;;;;3.80;1.55;;;;;;;;;;1749245;28;20201;-77
2024/01/05 11:01:30;;;;;;;4.22;1.80;;;;;;;;;;1743289;28;20194;-76
2024/01/05 11:02:22;;;;;;;3.63;1.75;;;;;;;;;;1742315;28;20297;-77
2024/01/05 11:03:15;;;;;;;3.67;1.90;;;;;;;;;;1743498;28;20199;-76
2024/01/05 11:04:06;;;;;;;2.58;1.73;;;;;;;;;;1749150;28;20209;-77
2024/01/05 11:05:00;;;;;;;2.47;1.52;;;;;;;;;;1749225;28;20194;-77
2024/01/05 11:05:52;;;;;;;2.28;1.65;;;;;;;;;;1744157;28;20199;-77
2024/01/05 11:06:44;;;;;;;2.75;1.65;;;;;;;;;;1749151;28;20209;-77
2024/01/05 11:07:35;;;;;;;3.33;1.95;;;;;;;;;;1743414;28;20207;-77
2024/01/05 11:08:31;;;;;;;4.90;2.10;;;;;;;;;;1742387;28;20199;-77
2024/01/05 11:09:28;;;;;;;5.00;2.20;;;;;;;;;;1746753;28;20214;-77
2024/01/05 11:10:26;;;;;;;4.22;2.15;;;;;;;;;;1749143;28;20201;-77
2024/01/05 11:11:22;;;;;;;6.13;2.08;;;;;;;;;;1744372;28;20595;-77
2024/01/05 11:12:22;;;;;;;2.92;2.08;;;;;;;;;;1742136;28;20227;-77
2024/01/05 11:13:33;;;;;;;11.95;8.43;;;;;;;;;;1747382;28;20644;-77
2024/01/05 11:14:34;;;;;;;10.90;9.80;;;;;;;;;;1749136;28;20259;-77